Time;durP1;ratioP1;P1;durP2;ratioP2;P2;SDS_P1;SDS_P2;PMS_P1;PMS_P2;Temp;Humidity;BMP_temperature;BMP_pressure;BME280_temperature;BME280_humidity;BME280_pressure;Samples;Min_cycle;Max_cycle;Signal;HPM_P1;HPM_P2
2022/07/27 00:01:05;;;;;;;7.03;1.15;;;13.90;99.90;;;;;;5051556;28;20123;-77
2022/07/27 00:03:31;;;;;;;4.35;0.70;;;13.90;99.90;;;;;;5051296;28;20037;-74
2022/07/27 00:05:57;;;;;;;5.05;0.98;;;13.90;99.90;;;;;;5050215;28;20103;-75
2022/07/27 00:08:23;;;;;;;4.97;0.70;;;13.80;99.90;;;;;;5051656;28;20437;-75
2022/07/27 00:10:50;;;;;;;6.43;0.90;;;13.80;99.90;;;;;;5051234;28;20045;-76
2022/07/27 00:13:16;;;;;;;5.85;1.00;;;13.80;99.90;;;;;;5051461;28;20110;-77
2022/07/27 00:15:42;;;;;;;4.93;0.80;;;13.80;99.90;;;;;;5051335;28;20057;-76
2022/07/27 00:18:08;;;;;;;4.82;0.90;;;13.90;99.90;;;;;;5050833;28;20506;-76
2022/07/27 00:20:33;;;;;;;3.78;1.00;;;13.80;99.90;;;;;;5051333;28;20057;-75
2022/07/27 00:23:01;;;;;;;3.83;0.70;;;13.70;99.90;;;;;;5051453;28;20185;-77
2022/07/27 00:25:27;;;;;;;4.60;1.00;;;13.60;99.90;;;;;;5049675;28;20052;-75
2022/07/27 00:27:55;;;;;;;5.68;1.10;;;13.60;99.90;;;;;;5049934;28;20048;-77
2022/07/27 00:30:21;;;;;;;4.35;1.05;;;13.50;99.90;;;;;;5049791;28;20057;-76
2022/07/27 00:32:47;;;;;;;4.65;1.17;;;13.60;99.90;;;;;;5049651;28;20464;-77
2022/07/27 00:35:13;;;;;;;5.53;0.90;;;13.40;99.90;;;;;;5051295;28;20056;-76
2022/07/27 00:37:39;;;;;;;5.65;1.13;;;13.40;99.90;;;;;;5051208;28;20075;-77
2022/07/27 00:40:05;;;;;;;5.60;1.15;;;13.30;99.90;;;;;;5050672;28;20416;-76
2022/07/27 00:42:31;;;;;;;6.63;1.08;;;13.30;99.90;;;;;;5049451;28;20565;-76
2022/07/27 00:44:57;;;;;;;4.22;0.95;;;13.20;99.90;;;;;;5050574;28;20041;-75
2022/07/27 00:47:23;;;;;;;9.32;1.50;;;13.20;99.90;;;;;;5049424;28;20053;-77
2022/07/27 00:49:49;;;;;;;6.72;1.33;;;13.10;99.90;;;;;;5050545;28;20128;-76
2022/07/27 00:52:16;;;;;;;6.85;1.65;;;13.10;99.90;;;;;;5049724;28;20131;-75
2022/07/27 00:54:43;;;;;;;7.05;1.13;;;13.00;99.90;;;;;;5049672;28;20053;-76
2022/07/27 00:57:10;;;;;;;6.15;1.15;;;12.90;99.90;;;;;;5049309;28;20041;-77
2022/07/27 00:59:36;;;;;;;9.15;1.38;;;12.90;99.90;;;;;;5049251;28;20583;-74
2022/07/27 01:02:05;;;;;;;5.90;1.05;;;12.80;99.90;;;;;;5050615;28;20623;-77
2022/07/27 01:04:31;;;;;;;5.45;0.90;;;13.00;99.90;;;;;;5049674;28;20047;-76
2022/07/27 01:06:57;;;;;;;6.28;1.30;;;12.70;99.90;;;;;;5050518;28;20125;-76
2022/07/27 01:12:13;;;;;;;5.85;1.10;;;12.60;99.90;;;;;;5050271;28;20049;-76
2022/07/27 01:14:39;;;;;;;3.00;1.05;;;12.60;99.90;;;;;;5050271;28;20373;-76
2022/07/27 01:17:06;;;;;;;6.30;1.48;;;12.80;99.90;;;;;;5050437;28;20514;-77
2022/07/27 01:19:32;;;;;;;4.88;1.42;;;12.50;99.90;;;;;;5050134;28;20087;-75
2022/07/27 01:21:58;;;;;;;5.60;1.17;;;12.50;99.90;;;;;;5050263;28;20049;-76
2022/07/27 01:24:23;;;;;;;6.55;1.58;;;12.60;99.90;;;;;;5049044;28;20051;-77
2022/07/27 01:26:49;;;;;;;6.20;1.50;;;12.50;99.90;;;;;;5050427;28;20055;-76
2022/07/27 01:29:15;;;;;;;7.93;1.42;;;12.50;99.90;;;;;;5049841;28;20079;-75
2022/07/27 01:31:41;;;;;;;6.60;1.50;;;12.50;99.90;;;;;;5048890;28;20052;-75
2022/07/27 01:34:06;;;;;;;8.65;1.88;;;12.50;99.90;;;;;;5050165;28;20052;-76
2022/07/27 01:36:32;;;;;;;8.02;1.50;;;12.50;99.90;;;;;;5048189;28;20037;-76
2022/07/27 01:38:58;;;;;;;10.57;1.52;;;12.50;99.90;;;;;;5048765;28;20044;-76
2022/07/27 01:41:23;;;;;;;4.78;1.45;;;12.50;99.90;;;;;;5050028;28;20049;-77
2022/07/27 01:43:49;;;;;;;8.68;1.60;;;12.50;99.90;;;;;;5050034;28;20044;-77
2022/07/27 01:46:15;;;;;;;7.05;1.60;;;12.70;99.90;;;;;;5048938;28;20133;-75
2022/07/27 01:48:41;;;;;;;6.95;2.15;;;12.50;99.90;;;;;;5048870;28;20057;-75
2022/07/27 01:51:07;;;;;;;5.30;1.38;;;12.50;99.90;;;;;;5049610;28;20041;-75
2022/07/27 01:53:32;;;;;;;5.80;1.75;;;12.70;99.90;;;;;;5048735;28;20041;-77
2022/07/27 01:55:58;;;;;;;4.30;1.58;;;12.50;99.90;;;;;;5049850;28;20049;-76
2022/07/27 01:58:24;;;;;;;4.00;1.30;;;12.50;99.90;;;;;;5049797;28;20041;-77
2022/07/27 02:00:49;;;;;;;6.78;1.30;;;12.40;99.90;;;;;;5048901;28;20098;-74
2022/07/27 02:03:15;;;;;;;8.48;1.80;;;12.40;99.90;;;;;;5030089;28;20045;-77
2022/07/27 02:05:41;;;;;;;7.85;1.33;;;12.40;99.90;;;;;;5033245;28;20190;-75
2022/07/27 02:08:07;;;;;;;7.75;1.83;;;12.30;99.90;;;;;;5057053;28;20053;-76
2022/07/27 02:10:34;;;;;;;6.05;1.30;;;12.30;99.90;;;;;;5049969;28;20060;-76
2022/07/27 02:13:00;;;;;;;4.57;1.27;;;12.30;99.90;;;;;;5049755;28;20090;-76
2022/07/27 02:15:28;;;;;;;4.15;1.50;;;12.40;99.90;;;;;;5047978;28;20128;-76
2022/07/27 02:17:54;;;;;;;5.60;1.23;;;12.20;99.90;;;;;;5065775;28;20178;-75
2022/07/27 02:20:23;;;;;;;6.45;1.80;;;12.20;99.90;;;;;;5073808;28;20036;-78
2022/07/27 02:22:49;;;;;;;4.53;1.20;;;12.40;99.90;;;;;;5052914;28;20128;-77
2022/07/27 02:25:18;;;;;;;8.23;1.42;;;12.00;99.90;;;;;;5053344;28;20804;-77
2022/07/27 02:27:44;;;;;;;6.82;1.58;;;11.90;99.90;;;;;;5053329;28;20075;-77
2022/07/27 02:30:12;;;;;;;5.93;1.90;;;11.90;99.90;;;;;;5053065;28;20044;-76
2022/07/27 02:32:39;;;;;;;4.32;1.08;;;11.90;99.90;;;;;;5053513;28;20052;-77
2022/07/27 02:35:05;;;;;;;5.57;1.70;;;11.80;99.90;;;;;;5053342;28;20041;-75
2022/07/27 02:37:30;;;;;;;3.70;1.30;;;11.80;99.90;;;;;;5052616;28;20047;-75
2022/07/27 02:39:56;;;;;;;4.05;1.50;;;11.80;99.90;;;;;;5051954;28;20123;-75
2022/07/27 02:42:22;;;;;;;6.53;1.52;;;11.80;99.90;;;;;;5053055;28;20060;-75
2022/07/27 02:44:48;;;;;;;6.20;1.40;;;11.80;99.90;;;;;;5051277;28;20049;-76
2022/07/27 02:47:14;;;;;;;5.50;1.75;;;11.70;99.90;;;;;;5053446;28;20043;-75
2022/07/27 02:49:40;;;;;;;6.15;1.55;;;11.80;99.90;;;;;;5052984;28;20040;-78
2022/07/27 02:52:06;;;;;;;2.72;1.40;;;11.80;99.90;;;;;;5052803;28;20422;-77
2022/07/27 02:54:32;;;;;;;4.60;1.20;;;11.80;99.90;;;;;;5050916;28;20578;-75
2022/07/27 02:57:01;;;;;;;4.90;1.50;;;11.80;99.90;;;;;;5052735;28;20128;-77
2022/07/27 02:59:27;;;;;;;4.25;1.70;;;11.70;99.90;;;;;;5050990;28;20487;-77
2022/07/27 03:01:53;;;;;;;2.28;1.13;;;11.80;99.90;;;;;;5052616;28;20479;-77
2022/07/27 03:04:18;;;;;;;4.95;1.70;;;11.80;99.90;;;;;;5052468;28;20094;-75
2022/07/27 03:06:44;;;;;;;9.27;2.10;;;11.80;99.90;;;;;;5070152;28;20052;-75
2022/07/27 03:09:10;;;;;;;4.95;1.60;;;11.80;99.90;;;;;;5068532;28;20037;-76
2022/07/27 03:11:36;;;;;;;5.15;1.58;;;11.90;99.90;;;;;;5052411;28;20049;-77
2022/07/27 03:14:02;;;;;;;5.10;1.52;;;11.90;99.90;;;;;;5052220;28;20059;-76
2022/07/27 03:16:28;;;;;;;7.07;2.00;;;11.90;99.90;;;;;;5052318;28;20092;-76
2022/07/27 03:18:54;;;;;;;7.47;1.95;;;11.90;99.90;;;;;;5052241;28;20131;-77
2022/07/27 03:21:20;;;;;;;9.30;2.13;;;12.00;99.90;;;;;;5051047;28;20132;-77
2022/07/27 03:23:46;;;;;;;4.20;1.60;;;11.90;99.90;;;;;;5051948;28;20495;-76
2022/07/27 03:26:11;;;;;;;10.35;1.70;;;11.90;99.90;;;;;;5050623;28;20095;-77
2022/07/27 03:28:37;;;;;;;9.45;2.20;;;12.00;99.90;;;;;;5051153;28;20084;-78
2022/07/27 03:31:03;;;;;;;8.93;2.05;;;12.00;99.90;;;;;;5051974;28;20052;-77
2022/07/27 03:33:28;;;;;;;6.00;1.88;;;12.00;99.90;;;;;;5052369;28;20047;-78
2022/07/27 03:35:54;;;;;;;7.07;2.20;;;12.10;99.90;;;;;;5052046;28;20048;-76
2022/07/27 03:38:21;;;;;;;7.18;2.30;;;12.10;99.90;;;;;;5051846;28;20056;-77
2022/07/27 03:40:47;;;;;;;7.20;1.90;;;12.10;99.90;;;;;;5051829;28;20120;-76
2022/07/27 03:43:13;;;;;;;14.05;1.90;;;12.10;99.90;;;;;;5051803;28;20493;-76
2022/07/27 03:45:39;;;;;;;9.45;2.78;;;12.20;99.90;;;;;;5051733;28;20052;-74
2022/07/27 03:48:05;;;;;;;7.25;2.05;;;12.20;99.90;;;;;;5051958;28;20140;-74
2022/07/27 03:50:31;;;;;;;5.72;2.33;;;12.20;99.90;;;;;;5052362;28;20124;-76
2022/07/27 03:52:57;;;;;;;5.32;2.25;;;12.20;99.90;;;;;;5051867;28;20091;-75
2022/07/27 03:55:22;;;;;;;5.57;1.70;;;12.30;99.90;;;;;;5051534;28;20462;-77
2022/07/27 03:57:49;;;;;;;8.43;1.60;;;12.40;99.90;;;;;;5051612;28;20563;-78
2022/07/27 04:00:15;;;;;;;9.77;2.20;;;12.30;99.90;;;;;;5051603;28;20148;-77
2022/07/27 04:02:42;;;;;;;10.25;2.00;;;12.30;99.90;;;;;;5051192;28;20735;-77
2022/07/27 04:05:08;;;;;;;8.20;2.10;;;12.30;99.90;;;;;;5051758;28;20049;-77
2022/07/27 04:07:34;;;;;;;6.32;1.80;;;12.40;99.90;;;;;;5051434;28;20103;-76
2022/07/27 04:10:00;;;;;;;8.38;2.00;;;12.50;99.90;;;;;;5051617;28;20044;-77
2022/07/27 04:12:26;;;;;;;6.93;2.00;;;12.40;99.90;;;;;;5050945;28;20067;-75
2022/07/27 04:14:51;;;;;;;12.43;2.00;;;12.50;99.90;;;;;;5051341;28;20114;-77
2022/07/27 04:17:17;;;;;;;12.13;2.13;;;12.60;99.90;;;;;;5051412;28;20060;-77
2022/07/27 04:19:42;;;;;;;10.50;1.70;;;12.70;99.90;;;;;;5050221;28;20096;-76
2022/07/27 04:22:08;;;;;;;6.78;1.92;;;12.60;99.90;;;;;;5051466;28;20094;-77
2022/07/27 04:24:34;;;;;;;13.63;2.13;;;12.60;99.90;;;;;;5051145;28;20460;-76
2022/07/27 04:27:00;;;;;;;5.40;1.88;;;12.60;99.90;;;;;;5049515;28;20083;-76
2022/07/27 04:29:26;;;;;;;4.35;1.65;;;12.70;99.90;;;;;;5050872;28;20499;-77
2022/07/27 04:31:52;;;;;;;10.48;1.90;;;12.80;99.90;;;;;;5051014;28;20056;-77
2022/07/27 04:34:18;;;;;;;8.45;1.83;;;12.80;99.90;;;;;;5051086;28;20055;-76
2022/07/27 04:36:43;;;;;;;7.13;1.75;;;12.80;99.90;;;;;;5049351;28;20045;-77
2022/07/27 04:39:09;;;;;;;6.68;2.20;;;12.90;99.90;;;;;;5049891;28;20048;-77
2022/07/27 04:41:35;;;;;;;6.15;1.85;;;12.90;99.90;;;;;;5048877;28;20450;-74
2022/07/27 04:44:01;;;;;;;4.45;1.90;;;13.10;99.90;;;;;;5049181;28;20049;-78
2022/07/27 04:46:29;;;;;;;10.48;2.05;;;13.00;99.90;;;;;;5050554;28;20051;-77
2022/07/27 04:48:55;;;;;;;9.48;2.55;;;13.10;99.90;;;;;;5049570;28;20064;-75
2022/07/27 04:51:20;;;;;;;5.97;2.20;;;13.10;99.90;;;;;;5051069;28;20049;-79
2022/07/27 04:53:46;;;;;;;9.40;2.13;;;13.20;99.90;;;;;;5049085;28;20045;-77
2022/07/27 04:56:11;;;;;;;8.50;2.05;;;13.10;99.90;;;;;;5050409;28;20067;-78
2022/07/27 04:58:37;;;;;;;8.98;1.95;;;13.20;99.90;;;;;;5050068;28;20087;-77
2022/07/27 05:01:03;;;;;;;8.68;1.92;;;13.30;99.90;;;;;;5048867;28;20059;-75
2022/07/27 05:03:28;;;;;;;9.45;1.85;;;13.30;99.90;;;;;;5049940;28;20045;-77
2022/07/27 05:05:54;;;;;;;9.88;1.92;;;13.30;99.90;;;;;;5049171;28;20045;-78
2022/07/27 05:08:21;;;;;;;5.40;1.65;;;13.40;99.90;;;;;;5048793;28;20057;-76
2022/07/27 05:10:47;;;;;;;8.75;1.58;;;13.50;99.90;;;;;;5050103;28;20116;-76
2022/07/27 05:13:13;;;;;;;7.00;2.03;;;13.50;99.90;;;;;;5049999;28;20583;-78
2022/07/27 05:15:39;;;;;;;5.10;1.42;;;13.70;99.90;;;;;;5048619;28;20838;-76
2022/07/27 05:18:05;;;;;;;5.88;1.60;;;13.50;99.90;;;;;;5050039;28;20057;-75
2022/07/27 05:20:31;;;;;;;7.97;1.58;;;13.50;99.90;;;;;;5050361;28;20176;-77
2022/07/27 05:22:57;;;;;;;4.40;1.25;;;13.60;99.90;;;;;;5049896;28;20088;-77
2022/07/27 05:25:25;;;;;;;9.93;1.77;;;13.70;99.90;;;;;;5048817;28;20055;-78
2022/07/27 05:27:52;;;;;;;8.52;1.40;;;13.60;99.90;;;;;;5050203;28;20056;-76
2022/07/27 05:30:18;;;;;;;8.05;1.48;;;13.80;99.90;;;;;;5049480;28;20041;-77
2022/07/27 05:32:44;;;;;;;6.38;1.42;;;13.80;99.90;;;;;;5049189;28;20139;-77
2022/07/27 05:35:10;;;;;;;8.55;1.45;;;13.80;99.90;;;;;;5050369;28;20853;-76
2022/07/27 05:37:36;;;;;;;4.05;1.30;;;14.00;99.90;;;;;;5050011;28;20056;-77
2022/07/27 05:40:03;;;;;;;8.15;1.70;;;14.00;99.90;;;;;;5050022;28;20045;-75
2022/07/27 05:42:29;;;;;;;7.07;1.25;;;14.00;99.90;;;;;;5050148;28;20064;-75
2022/07/27 05:44:55;;;;;;;4.55;1.00;;;14.10;99.90;;;;;;5047803;28;20044;-76
2022/07/27 05:47:21;;;;;;;3.65;1.00;;;14.10;99.90;;;;;;5049651;28;20067;-76
2022/07/27 05:49:47;;;;;;;8.10;1.20;;;14.10;99.90;;;;;;5049780;28;20063;-75
2022/07/27 05:52:13;;;;;;;7.55;1.73;;;14.20;99.90;;;;;;5049263;28;20056;-76
2022/07/27 05:54:39;;;;;;;11.63;1.38;;;14.20;99.90;;;;;;5049933;28;20045;-77
2022/07/27 05:57:04;;;;;;;7.60;1.20;;;14.30;99.90;;;;;;5049654;28;20049;-74
2022/07/27 05:59:31;;;;;;;4.65;1.05;;;14.40;99.90;;;;;;5047752;28;20049;-77
2022/07/27 06:01:58;;;;;;;6.35;1.13;;;14.40;99.90;;;;;;5049355;28;20486;-77
2022/07/27 06:04:24;;;;;;;6.93;1.15;;;14.50;99.90;;;;;;5049419;28;20045;-76
2022/07/27 06:09:34;;;;;;;5.72;1.10;;;14.60;99.90;;;;;;5038846;28;20049;-75
2022/07/27 06:12:00;;;;;;;6.03;1.67;;;14.70;99.90;;;;;;5049802;28;20048;-76
2022/07/27 06:14:26;;;;;;;5.85;1.45;;;14.80;99.90;;;;;;5049839;28;20469;-77
2022/07/27 06:16:51;;;;;;;3.67;1.00;;;14.80;99.90;;;;;;5049034;28;20534;-78
2022/07/27 06:19:17;;;;;;;7.93;1.63;;;14.90;99.90;;;;;;5050033;28;20064;-75
2022/07/27 06:21:43;;;;;;;6.05;1.20;;;15.00;99.90;;;;;;5048271;28;20055;-76
2022/07/27 06:24:09;;;;;;;9.68;1.95;;;15.10;99.90;;;;;;5049380;28;20040;-78
2022/07/27 06:26:34;;;;;;;7.00;1.60;;;15.20;99.90;;;;;;5049222;28;20073;-76
2022/07/27 06:29:00;;;;;;;9.45;1.63;;;15.30;99.90;;;;;;5048975;28;20048;-79
2022/07/27 06:31:26;;;;;;;5.88;1.33;;;15.50;99.90;;;;;;5048974;28;20561;-78
2022/07/27 06:33:53;;;;;;;7.97;1.20;;;15.80;99.90;;;;;;5049473;28;20882;-75
2022/07/27 06:36:20;;;;;;;7.18;0.90;;;15.70;99.90;;;;;;5049302;28;20475;-77
2022/07/27 06:38:47;;;;;;;3.65;1.00;;;15.90;99.90;;;;;;5049063;28;20053;-76
2022/07/27 06:41:12;;;;;;;8.00;1.17;;;16.00;99.90;;;;;;5049226;28;20382;-77
2022/07/27 06:43:39;;;;;;;5.78;0.90;;;16.00;99.90;;;;;;5047843;28;20492;-77
2022/07/27 06:46:06;;;;;;;8.95;1.10;;;16.20;99.90;;;;;;5047784;28;20059;-76
2022/07/27 06:48:32;;;;;;;12.48;1.35;;;16.20;99.90;;;;;;5049173;28;20059;-78
2022/07/27 06:50:59;;;;;;;4.38;0.88;;;16.20;99.90;;;;;;5049533;28;20380;-78
2022/07/27 06:53:25;;;;;;;6.00;1.83;;;16.40;99.90;;;;;;5049289;28;20045;-77
2022/07/27 06:55:51;;;;;;;4.82;1.23;;;16.60;99.90;;;;;;5049265;28;20041;-79
2022/07/27 06:58:17;;;;;;;6.03;1.50;;;16.70;99.90;;;;;;5048974;28;20116;-78
2022/07/27 07:00:44;;;;;;;10.80;1.58;;;16.90;99.90;;;;;;5049258;28;20131;-78
2022/07/27 07:03:10;;;;;;;6.75;1.20;;;16.90;99.90;;;;;;5049907;28;20126;-78
2022/07/27 07:05:44;;;;;;;5.78;1.00;;;17.10;99.90;;;;;;5052997;28;20077;-80
2022/07/27 07:08:12;;;;;;;9.68;1.17;;;17.50;99.90;;;;;;5051371;28;20059;-81
2022/07/27 07:10:39;;;;;;;5.63;0.95;;;17.60;99.90;;;;;;5052669;28;20045;-79
2022/07/27 07:13:06;;;;;;;6.95;1.58;;;17.80;99.90;;;;;;5052567;28;20049;-79
2022/07/27 07:15:33;;;;;;;9.32;1.20;;;18.10;99.90;;;;;;5052388;28;20056;-78
2022/07/27 07:17:59;;;;;;;4.90;1.10;;;18.10;99.90;;;;;;5052087;28;20132;-77
2022/07/27 07:20:25;;;;;;;6.05;1.00;;;18.20;99.90;;;;;;5052335;28;20087;-79
2022/07/27 07:22:50;;;;;;;10.73;1.10;;;18.30;99.90;;;;;;5051979;28;20068;-79
2022/07/27 07:25:16;;;;;;;9.50;0.98;;;18.30;99.90;;;;;;5052543;28;20043;-77
2022/07/27 07:27:42;;;;;;;9.45;0.93;;;18.60;99.90;;;;;;5052218;28;20060;-77
2022/07/27 07:30:08;;;;;;;6.22;1.10;;;18.70;99.90;;;;;;5052223;28;20419;-79
2022/07/27 07:32:36;;;;;;;7.63;1.08;;;18.40;99.90;;;;;;5052076;28;20045;-79
2022/07/27 07:35:03;;;;;;;5.97;0.90;;;18.50;99.90;;;;;;5051997;28;20049;-82
2022/07/27 07:37:29;;;;;;;9.15;1.40;;;18.60;99.90;;;;;;5052177;28;20458;-78
2022/07/27 07:39:55;;;;;;;11.75;1.13;;;18.80;99.90;;;;;;5052194;28;20049;-79
2022/07/27 07:42:21;;;;;;;5.97;0.90;;;18.80;99.90;;;;;;5050209;28;20061;-80
2022/07/27 07:44:47;;;;;;;5.38;1.00;;;18.90;99.90;;;;;;5051974;28;20045;-80
2022/07/27 07:47:12;;;;;;;6.68;1.08;;;18.70;99.90;;;;;;5051903;28;20045;-78
2022/07/27 07:49:38;;;;;;;8.10;1.55;;;18.50;99.90;;;;;;5051874;28;20091;-79
2022/07/27 07:52:04;;;;;;;3.92;1.00;;;18.20;99.90;;;;;;5051512;28;20056;-78
2022/07/27 07:54:29;;;;;;;6.43;0.95;;;17.90;99.90;;;;;;5051852;28;20076;-79
2022/07/27 07:56:55;;;;;;;4.82;1.30;;;17.80;99.90;;;;;;5051832;28;20087;-78
2022/07/27 07:59:21;;;;;;;7.30;0.90;;;17.60;99.90;;;;;;5051873;28;20056;-78
2022/07/27 08:01:46;;;;;;;8.18;1.20;;;17.40;99.90;;;;;;5051687;28;20053;-80
2022/07/27 08:04:12;;;;;;;6.30;1.08;;;17.50;99.90;;;;;;5051264;28;20078;-79
2022/07/27 08:06:38;;;;;;;6.05;1.10;;;17.40;99.90;;;;;;5050436;28;20444;-80
2022/07/27 08:09:05;;;;;;;4.43;0.73;;;17.30;99.90;;;;;;5051559;28;20055;-78
2022/07/27 08:11:31;;;;;;;6.43;1.00;;;17.20;99.90;;;;;;5051660;28;20089;-78
2022/07/27 08:13:57;;;;;;;4.30;1.10;;;17.20;99.90;;;;;;5051185;28;20044;-79
2022/07/27 08:16:23;;;;;;;5.35;1.10;;;17.30;99.90;;;;;;5050216;28;20049;-81
2022/07/27 08:18:49;;;;;;;5.65;1.02;;;17.30;99.90;;;;;;5051152;28;20091;-80
2022/07/27 08:21:14;;;;;;;7.32;1.08;;;17.30;99.90;;;;;;5050868;28;20091;-79
2022/07/27 08:23:40;;;;;;;5.53;1.52;;;17.20;99.90;;;;;;5051224;28;20041;-78
2022/07/27 08:26:06;;;;;;;6.38;1.13;;;17.30;99.90;;;;;;5051328;28;20149;-80
2022/07/27 08:28:32;;;;;;;6.53;0.88;;;17.40;99.90;;;;;;5051625;28;20487;-80
2022/07/27 08:30:58;;;;;;;5.03;1.05;;;17.40;99.90;;;;;;5051646;28;20052;-78
2022/07/27 08:33:23;;;;;;;7.47;1.00;;;17.40;99.90;;;;;;5051473;28;20037;-79
2022/07/27 08:35:49;;;;;;;3.90;0.85;;;17.50;99.90;;;;;;5051416;28;20041;-78
2022/07/27 08:38:14;;;;;;;6.25;1.10;;;17.50;99.90;;;;;;5051448;28;20048;-79
2022/07/27 08:40:41;;;;;;;9.52;1.00;;;17.60;99.90;;;;;;5051387;28;20057;-80
2022/07/27 08:43:07;;;;;;;7.10;1.10;;;17.70;99.90;;;;;;5050342;28;20049;-80
2022/07/27 08:45:36;;;;;;;5.00;1.20;;;17.70;99.90;;;;;;5050903;28;20049;-78
2022/07/27 08:48:02;;;;;;;3.47;0.60;;;17.80;99.90;;;;;;5051930;28;20060;-78
2022/07/27 08:50:29;;;;;;;3.92;0.60;;;17.90;99.90;;;;;;5066034;28;20040;-77
2022/07/27 08:53:08;;;;;;;2.08;0.40;;;18.00;99.90;;;;;;5070739;28;20056;-78
2022/07/27 08:55:38;;;;;;;4.80;0.80;;;18.10;99.90;;;;;;5070613;28;20590;-80
2022/07/27 08:58:05;;;;;;;3.72;0.85;;;18.20;99.90;;;;;;5070729;28;20123;-81
2022/07/27 09:00:33;;;;;;;2.33;0.50;;;18.40;99.90;;;;;;5070530;28;20040;-78
2022/07/27 09:02:59;;;;;;;6.32;0.60;;;18.40;99.90;;;;;;5069151;28;20506;-78
2022/07/27 09:05:25;;;;;;;4.60;0.75;;;18.60;99.90;;;;;;5069660;28;20051;-77
2022/07/27 09:07:51;;;;;;;3.83;0.70;;;18.60;99.90;;;;;;5070609;28;20127;-79
2022/07/27 09:10:34;;;;;;;5.55;1.00;;;18.70;99.90;;;;;;5070531;28;20128;-79
2022/07/27 09:13:22;;;;;;;8.82;0.90;;;18.90;99.90;;;;;;5070357;28;20040;-81
2022/07/27 09:15:50;;;;;;;9.68;1.10;;;19.20;99.90;;;;;;5070162;28;20072;-80
2022/07/27 09:18:25;;;;;;;7.60;0.90;;;19.60;99.90;;;;;;5070395;28;20122;-79
2022/07/27 09:21:07;;;;;;;10.95;1.02;;;19.80;99.90;;;;;;5070376;28;20051;-80
2022/07/27 09:23:33;;;;;;;7.53;1.02;;;20.10;99.90;;;;;;5069980;28;20590;-78
2022/07/27 09:26:15;;;;;;;8.35;1.20;;;20.30;99.90;;;;;;5069521;28;20082;-77
2022/07/27 09:28:41;;;;;;;9.10;0.98;;;20.50;99.90;;;;;;5070103;28;20044;-80
2022/07/27 09:31:16;;;;;;;7.65;1.00;;;20.40;99.90;;;;;;5068842;28;20052;-78
2022/07/27 09:33:52;;;;;;;;;;;20.10;99.90;;;;;;5070572;28;20503;-81
2022/07/27 09:36:21;;;;;;;8.18;1.23;;;20.10;99.90;;;;;;5068714;28;19924;-79
2022/07/27 09:38:55;;;;;;;4.95;0.85;;;20.20;99.90;;;;;;5069536;28;20053;-79
2022/07/27 09:41:22;;;;;;;6.20;0.80;;;20.20;99.90;;;;;;5070202;28;20047;-80
2022/07/27 09:43:53;;;;;;;4.30;0.70;;;20.10;99.90;;;;;;5069825;28;20072;-78
2022/07/27 09:46:40;;;;;;;3.72;0.77;;;20.20;99.90;;;;;;5070037;28;20540;-79
2022/07/27 09:49:31;;;;;;;9.60;0.73;;;20.10;99.90;;;;;;5069788;28;20047;-78
2022/07/27 09:51:58;;;;;;;5.65;0.80;;;20.20;99.90;;;;;;5069974;28;20052;-78
2022/07/27 09:54:25;;;;;;;3.45;0.60;;;20.10;99.90;;;;;;5069524;28;20048;-79
2022/07/27 09:57:01;;;;;;;8.10;1.13;;;20.30;99.90;;;;;;5070055;28;20048;-79
2022/07/27 09:59:28;;;;;;;4.88;0.60;;;20.60;99.90;;;;;;5069870;28;20064;-78
2022/07/27 10:01:54;;;;;;;5.70;0.70;;;20.90;99.90;;;;;;5069693;28;20060;-80
2022/07/27 10:04:20;;;;;;;4.05;0.88;;;21.10;99.90;;;;;;5069712;28;20131;-79
2022/07/27 10:06:47;;;;;;;3.22;1.00;;;21.40;99.90;;;;;;5069847;28;20123;-79
2022/07/27 10:09:13;;;;;;;4.25;0.70;;;21.70;99.90;;;;;;5069436;28;20040;-81
2022/07/27 10:11:39;;;;;;;4.38;0.73;;;22.00;99.90;;;;;;5069676;28;20052;-81
2022/07/27 10:14:06;;;;;;;2.58;0.57;;;22.20;99.90;;;;;;5069269;28;20140;-86
2022/07/27 10:16:33;;;;;;;3.50;0.60;;;22.50;99.90;;;;;;5069498;28;20574;-81
2022/07/27 10:19:12;;;;;;;4.78;0.80;;;22.70;99.90;;;;;;5069770;28;20048;-82
2022/07/27 10:21:42;;;;;;;4.13;0.68;;;22.70;99.70;;;;;;5069355;28;20051;-80
2022/07/27 10:24:11;;;;;;;3.70;0.60;;;23.00;99.90;;;;;;5069495;28;20084;-80
2022/07/27 10:26:41;;;;;;;7.82;0.80;;;22.70;99.70;;;;;;5069200;28;20063;-81
2022/07/27 10:29:13;;;;;;;4.78;0.80;;;22.60;99.00;;;;;;5069462;28;20040;-81
2022/07/27 10:31:41;;;;;;;7.63;0.68;;;22.10;96.50;;;;;;5069654;28;20376;-82
2022/07/27 10:34:09;;;;;;;5.28;0.60;;;22.10;99.00;;;;;;5069629;28;20044;-82
2022/07/27 10:36:35;;;;;;;3.13;0.70;;;21.60;97.20;;;;;;5069746;28;20095;-82
2022/07/27 10:39:06;;;;;;;3.88;1.15;;;21.40;98.70;;;;;;5073070;28;20083;-79
2022/07/27 10:41:40;;;;;;;4.55;0.60;;;21.20;97.90;;;;;;5071415;28;20044;-81
2022/07/27 10:44:17;;;;;;;4.43;0.50;;;21.00;96.70;;;;;;5073216;28;20475;-82
2022/07/27 10:46:45;;;;;;;3.60;0.55;;;20.90;97.20;;;;;;5073359;28;20048;-79
2022/07/27 10:49:23;;;;;;;3.92;0.70;;;20.70;98.40;;;;;;5073229;28;20048;-79
2022/07/27 10:51:52;;;;;;;3.33;0.50;;;20.90;98.20;;;;;;5073320;28;20549;-80
2022/07/27 10:54:21;;;;;;;3.20;0.55;;;21.50;98.30;;;;;;5072880;28;20055;-80
2022/07/27 10:56:49;;;;;;;1.98;0.43;;;21.80;98.30;;;;;;5072717;28;20551;-80
2022/07/27 10:59:38;;;;;;;3.42;0.65;;;22.20;98.30;;;;;;5072805;28;20554;-82
2022/07/27 11:02:12;;;;;;;3.25;0.52;;;22.30;96.20;;;;;;5070819;28;20127;-88
2022/07/27 11:04:50;;;;;;;3.22;0.60;;;22.60;97.20;;;;;;5072720;28;20178;-79
2022/07/27 11:07:25;;;;;;;2.80;0.50;;;22.70;96.20;;;;;;5072683;28;20040;-79
2022/07/27 11:09:52;;;;;;;2.63;0.40;;;22.90;96.80;;;;;;5072951;28;20044;-87
2022/07/27 11:12:18;;;;;;;7.75;0.50;;;23.10;95.20;;;;;;5072383;28;20730;-80
2022/07/27 11:14:49;;;;;;;2.15;0.47;;;23.10;95.50;;;;;;5072650;28;20062;-81
2022/07/27 11:17:18;;;;;;;4.38;0.70;;;23.30;95.70;;;;;;5071168;28;20068;-81
2022/07/27 11:19:44;;;;;;;3.58;0.40;;;23.40;95.90;;;;;;5072457;28;20059;-80
2022/07/27 11:22:11;;;;;;;3.03;0.32;;;23.30;95.10;;;;;;5072279;28;20048;-79
2022/07/27 11:24:37;;;;;;;6.82;0.60;;;23.40;95.90;;;;;;5070301;28;20123;-79
2022/07/27 11:27:03;;;;;;;2.03;0.43;;;23.50;95.70;;;;;;5052444;28;20116;-81
2022/07/27 11:29:34;;;;;;;1.40;0.30;;;23.40;94.80;;;;;;5051499;28;20091;-81
2022/07/27 11:32:01;;;;;;;7.40;0.50;;;23.60;94.70;;;;;;5052732;28;20080;-81
2022/07/27 11:34:29;;;;;;;3.85;0.60;;;23.80;94.70;;;;;;5051314;28;20061;-81
2022/07/27 11:36:57;;;;;;;5.57;0.73;;;23.80;91.80;;;;;;5052604;28;20053;-79
2022/07/27 11:39:27;;;;;;;1.95;0.52;;;23.90;94.80;;;;;;5051187;28;20041;-84
2022/07/27 11:42:03;;;;;;;1.98;0.40;;;24.30;93.80;;;;;;5052485;28;20047;-81
2022/07/27 11:44:29;;;;;;;4.50;1.35;;;24.10;93.10;;;;;;5050884;28;20045;-82
2022/07/27 11:46:56;;;;;;;3.13;0.40;;;24.10;92.30;;;;;;5052259;28;20135;-79
2022/07/27 11:49:27;;;;;;;1.08;0.30;;;24.30;93.60;;;;;;5052992;28;20689;-86
2022/07/27 11:51:59;;;;;;;2.97;0.50;;;24.60;93.40;;;;;;5064270;28;20121;-82
2022/07/27 11:54:32;;;;;;;6.55;0.50;;;24.30;91.90;;;;;;5032499;28;20049;-82
2022/07/27 11:57:00;;;;;;;5.82;0.40;;;24.40;92.40;;;;;;5039781;28;20083;-85
2022/07/27 11:59:27;;;;;;;12.65;1.00;;;24.60;93.10;;;;;;5051511;28;20083;-84
2022/07/27 12:01:57;;;;;;;4.75;0.47;;;24.90;93.40;;;;;;5051778;28;20520;-79
2022/07/27 12:04:37;;;;;;;3.40;0.77;;;25.00;93.30;;;;;;5055298;28;20106;-79
2022/07/27 12:07:14;;;;;;;5.63;1.13;;;24.70;92.00;;;;;;5071628;28;20056;-80
2022/07/27 12:09:44;;;;;;;4.68;0.77;;;24.30;92.00;;;;;;5071569;28;20059;-80
2022/07/27 12:12:13;;;;;;;1.92;0.40;;;24.00;92.10;;;;;;5071428;28;20557;-78
2022/07/27 12:14:50;;;;;;;3.70;0.60;;;23.80;92.90;;;;;;5071108;28;20087;-80
2022/07/27 12:17:29;;;;;;;3.60;0.73;;;23.70;92.00;;;;;;5062789;28;20041;-84
2022/07/27 12:20:14;;;;;;;6.30;0.82;;;23.80;92.30;;;;;;5051534;28;20511;-81
2022/07/27 12:22:49;;;;;;;4.68;0.60;;;23.50;91.70;;;;;;5051154;28;20053;-81
2022/07/27 12:25:17;;;;;;;2.95;0.70;;;23.70;93.10;;;;;;5051392;28;20063;-79
2022/07/27 12:28:08;;;;;;;2.75;0.70;;;23.30;92.90;;;;;;5049963;28;20045;-81
2022/07/27 12:30:34;;;;;;;4.35;0.70;;;23.20;92.60;;;;;;5050970;28;20504;-81
2022/07/27 12:33:00;;;;;;;5.97;0.70;;;23.00;93.50;;;;;;5050975;28;20051;-83
2022/07/27 12:35:28;;;;;;;5.07;0.82;;;22.70;93.30;;;;;;5051346;28;20065;-78
2022/07/27 12:38:04;;;;;;;6.95;0.77;;;22.50;93.30;;;;;;5051319;28;20041;-79
2022/07/27 12:40:31;;;;;;;6.93;1.00;;;22.60;93.70;;;;;;5050994;28;20049;-78
2022/07/27 12:43:03;;;;;;;6.80;0.55;;;22.50;93.90;;;;;;5049645;28;20148;-78
2022/07/27 12:45:37;;;;;;;4.50;0.80;;;22.30;93.90;;;;;;5050289;28;20562;-78
2022/07/27 12:48:08;;;;;;;6.32;0.65;;;22.40;93.90;;;;;;5050799;28;20044;-81
2022/07/27 12:50:34;;;;;;;3.58;0.70;;;22.30;93.50;;;;;;5051010;28;20044;-81
2022/07/27 12:53:00;;;;;;;7.50;0.70;;;22.30;94.20;;;;;;5049415;28;20148;-82